Hovedside
METAR-TAF:

METAR-TAF

Lufthavner :

Chongqing Jiangbei internasjonale lufthavn

Chongqing, Kina

breddegrad: 29-31N, lengdegrad: 106-29E, høyde over havet: 351 m

Gjeldene værobservasjon

Denne rapporten ble laget for 12 minutter siden, klokken 23:00 UTC
Vind 6 kt fra Øst
Temperatur 29°C
Luftfuktighet 62%
Trykk 1000 hPa
Sikt 10 km eller mer
ingen skyer under 1500 m og ingen bygeskyer

METAR: ZUCK 142300Z 10003MPS CAVOK 29/21 Q1000 NOSIG

Tid: 07:12 (23:12 UTC)

Varsel

Denne rapporten ble laget for 8 timer og 2 minutter siden, klokken 15:10 UTC
Varsel gyldig fra 14. klokken 18 UTC til 15. klokken 18 UTC
Vind 6 kt fra Sørøst
Sikt: 6000 m
Spredte skyer i en høyde av 3000 ft

TAF: ZUCK 141510Z 1418/1518 14003MPS 6000 SCT030 TX37/1508Z TN27/1422Z

Værobservasjoner og værvarsel for over 4000 flyplasser (METAR- og TAF-rapporter).

Tilgjengelige stasjoner er representert av de røde og gule prikkene på kartet.

Hold musepekeren over prikken for å se navnet på stasjonen.

Klikk så for å se værobservasjoner og -varsler.

For å forandre kartet kan du klikke på den grønne knappen med svart kryss for å zoome inn, på den grønne knappen med strek for å zoome ut, eller på de grønne pilene for å se tilstøtende kart.


METAR-TAF: